Time;durP1;ratioP1;P1;durP2;ratioP2;P2;SDS_P1;SDS_P2;PMS_P1;PMS_P2;Temp;Humidity;BMP_temperature;BMP_pressure;BME280_temperature;BME280_humidity;BME280_pressure;Samples;Min_cycle;Max_cycle;Signal;HPM_P1;HPM_P2
2022/08/08 00:01:14;;;;;;;;;;;;;;;13.65;46.88;101717.05;1643642;85;20128;-75
2022/08/08 00:03:56;;;;;;;;;;;;;;;13.62;47.07;101708.85;1640796;86;20222;-75
2022/08/08 00:06:45;;;;;;;;;;;;;;;13.60;47.05;101711.91;1640813;85;20216;-74
2022/08/08 00:09:27;;;;;;;;;;;;;;;13.60;47.10;101708.01;1643426;85;20215;-75
2022/08/08 00:11:57;;;;;;;;;;;;;;;13.54;46.93;101703.73;1647543;85;20269;-75
2022/08/08 00:14:32;;;;;;;;;;;;;;;13.55;47.18;101707.20;1642403;86;20284;-75
2022/08/08 00:17:14;;;;;;;;;;;;;;;13.54;47.22;101705.48;1648189;86;20097;-75
2022/08/08 00:19:56;;;;;;;;;;;;;;;13.51;47.24;101700.34;1644354;86;20139;-75
2022/08/08 00:22:25;;;;;;;;;;;;;;;13.47;47.42;101705.15;1646788;86;20111;-75
2022/08/08 00:24:57;;;;;;;;;;;;;;;13.40;47.44;101702.19;1648577;85;20137;-75
2022/08/08 00:27:25;;;;;;;;;;;;;;;13.45;47.32;101703.00;1652985;85;20119;-75
2022/08/08 00:29:56;;;;;;;;;;;;;;;13.46;47.47;101704.73;1649092;85;20147;-75
2022/08/08 00:32:34;;;;;;;;;;;;;;;13.39;47.39;101701.77;1648604;85;20154;-75
2022/08/08 00:35:19;;;;;;;;;;;;;;;13.40;47.65;101696.99;1641633;86;20640;-75
2022/08/08 00:37:51;;;;;;;;;;;;;;;13.36;47.70;101702.66;1643154;86;20258;-75
2022/08/08 00:40:26;;;;;;;;;;;;;;;13.35;47.91;101702.67;1643577;85;20264;-75
2022/08/08 00:43:08;;;;;;;;;;;;;;;13.29;47.88;101701.00;1643446;85;20179;-75
2022/08/08 00:45:40;;;;;;;;;;;;;;;13.25;47.95;101703.20;1563859;89;20222;-75
2022/08/08 00:48:16;;;;;;;;;;;;;;;13.24;47.95;101700.18;1587399;88;20236;-75
2022/08/08 00:51:06;;;;;;;;;;;;;;;13.25;47.96;101701.46;1641340;86;20213;-75
2022/08/08 00:53:55;;;;;;;;;;;;;;;13.29;47.98;101697.09;1638775;86;20269;-75
2022/08/08 00:56:51;;;;;;;;;;;;;;;13.31;47.98;101694.48;1635896;86;20254;-75
2022/08/08 00:59:27;;;;;;;;;;;;;;;13.30;48.08;101696.22;1640831;86;20223;-75
2022/08/08 01:02:05;;;;;;;;;;;;;;;13.23;47.96;101688.92;1616023;87;20222;-76
2022/08/08 01:04:58;;;;;;;;;;;;;;;13.19;48.15;101681.18;1644481;85;20218;-75
2022/08/08 01:07:46;;;;;;;;;;;;;;;13.11;48.13;101679.92;1615818;87;20249;-75
2022/08/08 01:10:33;;;;;;;;;;;;;;;13.05;48.19;101681.71;1588518;88;20235;-75
2022/08/08 01:13:36;;;;;;;;;;;;;;;13.03;48.44;101681.72;1645441;86;20239;-75
2022/08/08 01:16:24;;;;;;;;;;;;;;;13.04;48.35;101673.50;1640213;86;20195;-75
2022/08/08 01:19:27;;;;;;;;;;;;;;;13.04;48.44;101677.39;1641525;86;20233;-75
2022/08/08 01:22:14;;;;;;;;;;;;;;;13.00;48.48;101675.26;1645460;86;20243;-75
2022/08/08 01:25:03;;;;;;;;;;;;;;;12.93;48.59;101679.68;1639403;86;20238;-75
2022/08/08 01:28:01;;;;;;;;;;;;;;;12.89;48.50;101683.17;1650385;86;20200;-75
2022/08/08 01:31:05;;;;;;;;;;;;;;;12.85;48.69;101691.00;1639489;86;20206;-75
2022/08/08 01:34:10;;;;;;;;;;;;;;;12.76;48.83;101686.73;1645113;86;20630;-75
2022/08/08 01:37:13;;;;;;;;;;;;;;;12.79;48.91;101683.26;1640677;86;20250;-75
2022/08/08 01:40:14;;;;;;;;;;;;;;;12.71;48.91;101683.31;1633072;86;20236;-75
2022/08/08 01:42:59;;;;;;;;;;;;;;;12.71;49.21;101692.40;1640603;86;20163;-75
2022/08/08 01:45:49;;;;;;;;;;;;;;;12.61;48.95;101690.74;1638545;86;20238;-75
2022/08/08 01:48:27;;;;;;;;;;;;;;;12.59;49.19;101692.05;1644337;86;20195;-75
2022/08/08 01:51:06;;;;;;;;;;;;;;;12.57;49.23;101692.50;1643137;86;20199;-75
2022/08/08 01:53:42;;;;;;;;;;;;;;;12.50;49.18;101688.22;1642779;86;20221;-75
2022/08/08 01:56:27;;;;;;;;;;;;;;;12.45;49.28;101686.12;1644451;85;20206;-75
2022/08/08 01:59:19;;;;;;;;;;;;;;;12.44;49.38;101690.89;1634759;85;611654;-75
2022/08/08 02:02:07;;;;;;;;;;;;;;;12.48;49.53;101691.70;1589620;88;20108;-75
2022/08/08 02:04:41;;;;;;;;;;;;;;;12.48;49.48;101689.96;1652808;85;20127;-75
2022/08/08 02:07:17;;;;;;;;;;;;;;;12.44;49.63;101688.73;1653637;85;20135;-75
2022/08/08 02:09:59;;;;;;;;;;;;;;;12.45;49.67;101690.45;1637788;86;20132;-74
2022/08/08 02:12:29;;;;;;;;;;;;;;;12.46;49.42;101687.84;1643550;86;20152;-74
2022/08/08 02:15:14;;;;;;;;;;;;;;;12.50;49.57;101688.66;1642359;86;20197;-74
2022/08/08 02:17:52;;;;;;;;;;;;;;;12.51;49.79;101692.54;1640299;86;20274;-74
2022/08/08 02:20:33;;;;;;;;;;;;;;;12.49;49.67;101691.69;1637907;86;20191;-75
2022/08/08 02:23:06;;;;;;;;;;;;;;;12.43;49.65;101698.68;1641999;86;20223;-75
2022/08/08 02:25:48;;;;;;;;;;;;;;;12.44;49.84;101698.67;1642659;84;20438;-75
2022/08/08 02:28:21;;;;;;;;;;;;;;;12.39;49.89;101699.13;1639714;86;20706;-75
2022/08/08 02:30:59;;;;;;;;;;;;;;;12.32;49.89;101703.92;1639797;86;20210;-75
2022/08/08 02:33:55;;;;;;;;;;;;;;;12.33;49.95;101693.98;1643106;86;20211;-75
2022/08/08 02:36:27;;;;;;;;;;;;;;;12.38;50.01;101699.14;1637930;85;20227;-75
2022/08/08 02:39:13;;;;;;;;;;;;;;;12.34;49.94;101700.03;1638482;86;20231;-75
2022/08/08 02:41:58;;;;;;;;;;;;;;;12.32;50.07;101702.62;1610352;87;20204;-75
2022/08/08 02:44:57;;;;;;;;;;;;;;;12.25;50.06;101705.69;1646694;85;20220;-75
2022/08/08 02:47:49;;;;;;;;;;;;;;;12.21;50.08;101716.09;1626340;86;20276;-75
2022/08/08 02:50:53;;;;;;;;;;;;;;;12.23;50.28;101715.64;1610422;87;20211;-75
2022/08/08 02:53:56;;;;;;;;;;;;;;;12.24;50.18;101711.75;1612479;87;20207;-75
2022/08/08 02:56:26;;;;;;;;;;;;;;;12.25;50.39;101719.95;1610137;87;20199;-75
2022/08/08 02:59:21;;;;;;;;;;;;;;;12.23;50.24;101719.10;1610068;87;20208;-75
2022/08/08 03:01:58;;;;;;;;;;;;;;;12.22;50.24;101714.78;1623792;87;20478;-75
2022/08/08 03:04:46;;;;;;;;;;;;;;;12.14;50.39;101711.80;1616728;87;20235;-75
2022/08/08 03:07:37;;;;;;;;;;;;;;;12.07;50.46;101707.08;1590967;87;20199;-75
2022/08/08 03:10:25;;;;;;;;;;;;;;;12.06;50.53;101704.49;1609092;87;20212;-75
2022/08/08 03:12:58;;;;;;;;;;;;;;;12.02;50.47;101706.67;1620749;87;20555;-75
2022/08/08 03:15:33;;;;;;;;;;;;;;;11.96;50.57;101709.31;1583468;87;20179;-75
2022/08/08 03:18:09;;;;;;;;;;;;;;;11.88;50.76;101705.03;1612649;87;20204;-75
2022/08/08 03:20:44;;;;;;;;;;;;;;;11.83;50.82;101704.61;1611133;86;20197;-75
2022/08/08 03:23:11;;;;;;;;;;;;;;;11.83;50.75;101713.25;1625085;87;20290;-75
2022/08/08 03:25:38;;;;;;;;;;;;;;;11.88;51.05;101711.51;1619623;86;20247;-75
2022/08/08 03:28:09;;;;;;;;;;;;;;;11.86;50.86;101707.20;1609990;87;20219;-75
2022/08/08 03:30:35;;;;;;;;;;;;;;;11.85;51.02;101710.22;1612419;86;20383;-75
2022/08/08 03:33:19;;;;;;;;;;;;;;;11.85;50.92;101709.36;1615544;87;20226;-75
2022/08/08 03:35:50;;;;;;;;;;;;;;;11.88;50.95;101708.91;1602765;87;20231;-75
2022/08/08 03:38:22;;;;;;;;;;;;;;;11.85;50.96;101711.95;1624511;86;20136;-75
2022/08/08 03:40:50;;;;;;;;;;;;;;;11.80;51.13;101709.38;1619158;87;20112;-75
2022/08/08 03:43:16;;;;;;;;;;;;;;;11.79;51.05;101710.24;1612583;87;20133;-75
2022/08/08 03:45:42;;;;;;;;;;;;;;;11.73;51.15;101701.59;1613866;87;20112;-75
2022/08/08 03:48:09;;;;;;;;;;;;;;;11.72;51.33;101711.53;1619594;87;20437;-75
2022/08/08 03:50:38;;;;;;;;;;;;;;;11.71;51.22;101708.51;1621306;87;20147;-75
2022/08/08 03:53:10;;;;;;;;;;;;;;;11.77;51.36;101705.93;1584921;87;20165;-75
2022/08/08 03:55:44;;;;;;;;;;;;;;;11.74;51.47;101709.36;1620194;87;20113;-76
2022/08/08 03:58:16;;;;;;;;;;;;;;;11.69;51.62;101709.81;1625517;87;20104;-75
2022/08/08 04:00:51;;;;;;;;;;;;;;;11.69;51.51;101717.58;1655219;85;20132;-75
2022/08/08 04:03:19;;;;;;;;;;;;;;;11.70;51.51;101714.55;1655118;85;20140;-75
2022/08/08 04:05:45;;;;;;;;;;;;;;;11.72;51.48;101719.30;1661041;85;20102;-75
2022/08/08 04:08:20;;;;;;;;;;;;;;;11.74;51.60;101717.56;1648998;85;20443;-75
2022/08/08 04:10:48;;;;;;;;;;;;;;;11.72;51.51;101720.59;1653907;85;20447;-75
2022/08/08 04:13:15;;;;;;;;;;;;;;;11.74;51.68;101724.91;1648721;85;20142;-75
2022/08/08 04:15:42;;;;;;;;;;;;;;;11.74;51.70;101724.91;1646643;85;20221;-75
2022/08/08 04:18:08;;;;;;;;;;;;;;;11.80;51.71;101730.11;1645961;85;20339;-75
2022/08/08 04:20:34;;;;;;;;;;;;;;;11.87;51.74;101732.25;1645994;87;20223;-75
2022/08/08 04:23:00;;;;;;;;;;;;;;;11.92;51.78;101727.91;1646116;85;21070;-75
2022/08/08 04:25:26;;;;;;;;;;;;;;;11.98;51.65;101728.28;1648368;85;20616;-75
2022/08/08 04:27:52;;;;;;;;;;;;;;;12.03;51.83;101731.29;1645512;85;20298;-75
2022/08/08 04:30:18;;;;;;;;;;;;;;;12.00;51.91;101730.44;1645765;85;20330;-75
2022/08/08 04:32:45;;;;;;;;;;;;;;;12.02;51.96;101735.19;1650705;85;20233;-75
2022/08/08 04:35:11;;;;;;;;;;;;;;;12.06;51.93;101742.95;1646141;85;20186;-75
2022/08/08 04:37:37;;;;;;;;;;;;;;;12.12;52.05;101744.65;1646495;85;20186;-75
2022/08/08 04:40:05;;;;;;;;;;;;;;;12.15;52.06;101742.91;1652444;85;20372;-75
2022/08/08 04:42:32;;;;;;;;;;;;;;;12.19;52.17;101745.05;1647198;85;20351;-75
2022/08/08 04:44:59;;;;;;;;;;;;;;;12.23;52.19;101748.92;1618712;87;20424;-75
2022/08/08 04:47:25;;;;;;;;;;;;;;;12.29;52.46;101745.87;1623533;87;20142;-75
2022/08/08 04:49:51;;;;;;;;;;;;;;;12.28;52.44;101748.91;1604982;88;20123;-76
2022/08/08 04:52:19;;;;;;;;;;;;;;;12.26;52.43;101751.50;1613683;87;36624;-75
2022/08/08 04:54:45;;;;;;;;;;;;;;;12.28;52.77;101748.91;1581367;89;20216;-75
2022/08/08 04:57:11;;;;;;;;;;;;;;;12.34;52.81;101750.61;1588049;89;20514;-75
2022/08/08 04:59:38;;;;;;;;;;;;;;;12.40;52.88;101747.98;1577949;89;20201;-75
2022/08/08 05:02:04;;;;;;;;;;;;;;;12.44;53.00;101744.06;1570997;89;20140;-75
2022/08/08 05:04:30;;;;;;;;;;;;;;;12.51;53.12;101750.91;1582817;89;20169;-76
2022/08/08 05:06:56;;;;;;;;;;;;;;;12.58;53.35;101740.92;1589562;89;20627;-75
2022/08/08 05:09:23;;;;;;;;;;;;;;;12.68;53.46;101750.81;1586129;89;20108;-76
2022/08/08 05:11:50;;;;;;;;;;;;;;;12.78;53.30;101751.17;1569606;89;20117;-75
2022/08/08 05:14:16;;;;;;;;;;;;;;;12.89;53.58;101749.80;1572292;89;20207;-76
2022/08/08 05:16:42;;;;;;;;;;;;;;;13.01;53.57;101752.72;1574785;89;20104;-76
2022/08/08 05:19:11;;;;;;;;;;;;;;;13.13;53.49;101758.67;1574523;89;20170;-76
2022/08/08 05:21:36;;;;;;;;;;;;;;;13.26;53.80;101755.57;1576861;89;20121;-76
2022/08/08 05:24:02;;;;;;;;;;;;;;;13.38;53.82;101758.50;1578066;89;20138;-75
2022/08/08 05:26:28;;;;;;;;;;;;;;;13.53;53.94;101762.22;1574169;89;20436;-75
2022/08/08 05:28:54;;;;;;;;;;;;;;;13.79;54.22;101759.36;1625297;87;20144;-75
2022/08/08 05:31:20;;;;;;;;;;;;;;;14.15;54.13;101756.30;1631336;86;20163;-76
2022/08/08 05:33:47;;;;;;;;;;;;;;;14.58;54.66;101764.41;1626539;87;20505;-76
2022/08/08 05:36:16;;;;;;;;;;;;;;;15.18;54.68;101760.42;1632520;87;20100;-77
2022/08/08 05:38:45;;;;;;;;;;;;;;;15.81;54.39;101760.61;1633605;86;20149;-76
2022/08/08 05:41:13;;;;;;;;;;;;;;;16.46;54.58;101762.28;1628408;86;20126;-76
2022/08/08 05:43:41;;;;;;;;;;;;;;;17.05;54.03;101762.22;1628225;87;20101;-77
2022/08/08 05:46:09;;;;;;;;;;;;;;;17.70;53.76;101758.78;1624757;86;20171;-76
2022/08/08 05:48:36;;;;;;;;;;;;;;;18.39;53.71;101762.88;1640083;85;20672;-77
2022/08/08 05:51:03;;;;;;;;;;;;;;;19.01;53.36;101758.30;1644509;85;20153;-77
2022/08/08 05:53:29;;;;;;;;;;;;;;;19.64;53.03;101760.96;1647701;85;20140;-77
2022/08/08 05:55:58;;;;;;;;;;;;;;;20.18;52.46;101764.23;1642514;85;20602;-78
2022/08/08 05:58:28;;;;;;;;;;;;;;;20.63;52.33;101762.47;1646353;85;20150;-79
2022/08/08 06:00:59;;;;;;;;;;;;;;;21.09;52.16;101769.34;1648242;85;20670;-75
2022/08/08 06:03:27;;;;;;;;;;;;;;;21.55;51.84;101765.23;1648469;85;20201;-75
2022/08/08 06:05:55;;;;;;;;;;;;;;;21.95;51.67;101777.46;1656349;85;20216;-74
2022/08/08 06:08:27;;;;;;;;;;;;;;;22.40;51.54;101778.00;1648137;85;20247;-76
2022/08/08 06:10:55;;;;;;;;;;;;;;;22.85;51.13;101775.92;1645818;85;20115;-76
2022/08/08 06:13:21;;;;;;;;;;;;;;;23.25;50.66;101781.38;1648097;85;20103;-77
2022/08/08 06:15:49;;;;;;;;;;;;;;;23.60;50.76;101780.44;1647113;85;20119;-76
2022/08/08 06:18:16;;;;;;;;;;;;;;;24.02;50.48;101784.36;1623572;86;20138;-77
2022/08/08 06:20:44;;;;;;;;;;;;;;;24.36;50.18;101785.60;1650239;85;20569;-77
2022/08/08 06:23:11;;;;;;;;;;;;;;;24.65;50.18;101785.74;1623036;85;20143;-78
2022/08/08 06:25:42;;;;;;;;;;;;;;;24.92;49.96;101786.83;1649494;85;20094;-77
2022/08/08 06:28:15;;;;;;;;;;;;;;;25.24;49.57;101796.03;1651313;85;20497;-77
2022/08/08 06:30:43;;;;;;;;;;;;;;;25.45;49.59;101797.41;1652291;85;20839;-77
2022/08/08 06:33:11;;;;;;;;;;;;;;;25.72;49.24;101795.76;1647852;85;20131;-78
2022/08/08 06:35:41;;;;;;;;;;;;;;;25.97;49.20;101795.11;1655860;85;20204;-77
2022/08/08 06:38:09;;;;;;;;;;;;;;;26.22;48.94;101793.55;1653405;85;20200;-77
2022/08/08 06:40:35;;;;;;;;;;;;;;;26.42;48.88;101789.20;1660505;85;20644;-77
2022/08/08 06:43:07;;;;;;;;;;;;;;;26.63;48.88;101791.78;1625998;86;20672;-77
2022/08/08 06:45:33;;;;;;;;;;;;;;;26.84;48.40;101791.34;1650361;85;20267;-77
2022/08/08 06:48:01;;;;;;;;;;;;;;;27.00;48.36;101794.24;1623989;86;20212;-78
2022/08/08 06:50:28;;;;;;;;;;;;;;;27.23;48.00;101786.52;1654553;85;20186;-77
2022/08/08 06:53:00;;;;;;;;;;;;;;;27.47;47.95;101786.19;1657408;85;20639;-77
2022/08/08 06:55:26;;;;;;;;;;;;;;;27.72;47.83;101783.17;1653518;85;20668;-77
2022/08/08 06:57:52;;;;;;;;;;;;;;;27.97;46.99;101786.66;1657932;85;20709;-77
2022/08/08 07:00:18;;;;;;;;;;;;;;;28.26;47.16;101779.28;1651974;85;20183;-77
2022/08/08 07:02:53;;;;;;;;;;;;;;;28.60;46.95;101787.45;1648522;85;20265;-77
2022/08/08 07:05:21;;;;;;;;;;;;;;;29.03;46.80;101780.31;1612167;86;20520;-79
2022/08/08 07:08:08;;;;;;;;;;;;;;;29.42;46.42;101781.28;1594855;88;20736;-82
2022/08/08 07:10:41;;;;;;;;;;;;;;;29.84;46.21;101781.55;1641800;85;20542;-78
2022/08/08 07:13:08;;;;;;;;;;;;;;;30.23;46.06;101785.55;1645391;85;20665;-78
2022/08/08 07:15:37;;;;;;;;;;;;;;;30.58;45.49;101784.06;1643483;86;20787;-75
2022/08/08 07:18:08;;;;;;;;;;;;;;;30.79;45.32;101787.60;1611031;87;20226;-75
2022/08/08 07:20:38;;;;;;;;;;;;;;;30.89;45.37;101793.03;1624233;87;20502;-75
2022/08/08 07:23:22;;;;;;;;;;;;;;;31.00;44.94;101788.98;1645313;85;20250;-75
2022/08/08 07:25:51;;;;;;;;;;;;;;;31.27;44.89;101793.83;1593295;88;20655;-74
2022/08/08 07:28:22;;;;;;;;;;;;;;;31.66;44.32;101786.05;1600007;88;20552;-74
2022/08/08 07:30:48;;;;;;;;;;;;;;;31.96;44.39;101784.72;1588520;88;20510;-76
2022/08/08 07:33:15;;;;;;;;;;;;;;;32.29;44.39;101785.39;1617417;87;20200;-74
2022/08/08 07:35:43;;;;;;;;;;;;;;;32.17;44.13;101786.84;1593420;88;20538;-73
2022/08/08 07:38:10;;;;;;;;;;;;;;;32.01;43.60;101785.66;1619904;86;178303;-73
2022/08/08 07:40:36;;;;;;;;;;;;;;;32.04;43.31;101791.59;1624810;87;20247;-74
2022/08/08 07:43:04;;;;;;;;;;;;;;;32.39;43.15;101780.42;1631136;87;20890;-75
2022/08/08 07:45:31;;;;;;;;;;;;;;;32.72;42.49;101779.70;1591596;88;20467;-75
2022/08/08 07:47:57;;;;;;;;;;;;;;;32.90;42.07;101780.20;1622219;86;20415;-75
2022/08/08 07:50:24;;;;;;;;;;;;;;;32.87;42.08;101778.30;1642713;85;20226;-75
2022/08/08 07:52:56;;;;;;;;;;;;;;;32.93;41.64;101784.92;1640111;85;20219;-78
2022/08/08 07:55:25;;;;;;;;;;;;;;;32.83;40.62;101786.26;1643490;85;20207;-78
2022/08/08 07:57:55;;;;;;;;;;;;;;;32.77;40.82;101783.64;1642250;85;20550;-78
2022/08/08 08:00:23;;;;;;;;;;;;;;;32.95;40.36;101786.47;1647258;85;20301;-78
2022/08/08 08:02:59;;;;;;;;;;;;;;;33.01;40.19;101781.05;1646901;85;20253;-78
2022/08/08 08:05:27;;;;;;;;;;;;;;;32.86;38.47;101777.94;1636862;85;20234;-78
2022/08/08 08:07:54;;;;;;;;;;;;;;;32.74;39.26;101783.93;1649330;85;20534;-78
2022/08/08 08:10:23;;;;;;;;;;;;;;;32.73;38.06;101782.73;1647131;85;20235;-78
2022/08/08 08:12:55;;;;;;;;;;;;;;;32.71;38.33;101781.53;1642090;85;20215;-78
2022/08/08 08:15:24;;;;;;;;;;;;;;;32.80;38.21;101786.05;1645677;85;20210;-78
2022/08/08 08:17:54;;;;;;;;;;;;;;;32.51;38.17;101790.52;1651691;85;20222;-78
2022/08/08 08:20:21;;;;;;;;;;;;;;;32.39;36.95;101788.95;1646341;85;20233;-78
2022/08/08 08:22:47;;;;;;;;;;;;;;;32.48;37.55;101784.95;1644104;85;20541;-78
2022/08/08 08:25:13;;;;;;;;;;;;;;;32.74;37.33;101794.64;1652993;85;20212;-78
2022/08/08 08:27:39;;;;;;;;;;;;;;;32.86;36.93;101798.88;1648429;85;21347;-78
2022/08/08 08:30:07;;;;;;;;;;;;;;;32.83;36.92;101794.30;1640157;85;20515;-78
2022/08/08 08:32:33;;;;;;;;;;;;;;;32.47;36.51;101794.45;1649661;85;20139;-78
2022/08/08 08:35:00;;;;;;;;;;;;;;;31.79;36.67;101799.57;1647183;85;20174;-77
2022/08/08 08:37:28;;;;;;;;;;;;;;;31.28;36.70;101799.53;1622329;86;20122;-78
2022/08/08 08:39:54;;;;;;;;;;;;;;;31.03;35.63;101800.75;1652792;85;20227;-78
2022/08/08 08:42:23;;;;;;;;;;;;;;;30.57;35.75;101799.72;1650364;85;20520;-78
2022/08/08 08:44:50;;;;;;;;;;;;;;;30.18;35.59;101803.25;1647722;85;20215;-78
2022/08/08 08:47:18;;;;;;;;;;;;;;;30.28;35.66;101799.36;1651688;85;20273;-78
2022/08/08 08:49:44;;;;;;;;;;;;;;;30.29;35.49;101803.25;1618975;85;20217;-78
2022/08/08 08:52:12;;;;;;;;;;;;;;;30.17;34.24;101798.89;1590072;88;20242;-78
2022/08/08 08:54:39;;;;;;;;;;;;;;;30.09;35.14;101797.83;1621806;87;20289;-77
2022/08/08 08:57:07;;;;;;;;;;;;;;;29.98;34.78;101795.50;1622620;87;20218;-77
2022/08/08 08:59:35;;;;;;;;;;;;;;;29.88;34.68;101789.67;1620106;87;20245;-77
2022/08/08 09:02:02;;;;;;;;;;;;;;;29.75;34.41;101789.78;1619473;87;21107;-77
2022/08/08 09:04:32;;;;;;;;;;;;;;;29.54;34.59;101792.81;1619027;87;20198;-77
2022/08/08 09:06:58;;;;;;;;;;;;;;;29.28;34.46;101795.63;1618982;87;20177;-77
2022/08/08 09:09:29;;;;;;;;;;;;;;;29.10;34.11;101791.72;1610608;87;20938;-77
2022/08/08 09:11:58;;;;;;;;;;;;;;;28.99;34.22;101796.52;1621121;87;20241;-77
2022/08/08 09:14:25;;;;;;;;;;;;;;;28.71;33.72;101790.17;1614938;87;20213;-77
2022/08/08 09:16:52;;;;;;;;;;;;;;;28.60;33.64;101786.97;1595793;88;20177;-77
2022/08/08 09:19:19;;;;;;;;;;;;;;;28.39;33.73;101789.89;1621058;87;20262;-77
2022/08/08 09:21:46;;;;;;;;;;;;;;;28.24;33.42;101785.67;1618044;87;20165;-77
2022/08/08 09:24:14;;;;;;;;;;;;;;;28.04;33.70;101787.56;1618438;87;20247;-77
2022/08/08 09:26:46;;;;;;;;;;;;;;;27.91;33.70;101785.77;1615669;87;20220;-77
2022/08/08 09:29:21;;;;;;;;;;;;;;;27.69;33.67;101786.41;1613937;87;20191;-77
2022/08/08 09:32:04;;;;;;;;;;;;;;;27.40;33.62;101789.36;1614537;87;20237;-77
2022/08/08 09:34:35;;;;;;;;;;;;;;;27.26;33.45;101786.31;1620811;87;20123;-79
2022/08/08 09:37:07;;;;;;;;;;;;;;;27.20;33.30;101787.58;1617697;87;20138;-76
2022/08/08 09:39:43;;;;;;;;;;;;;;;27.07;32.78;101784.03;1561927;90;20143;-77
2022/08/08 09:42:12;;;;;;;;;;;;;;;26.89;30.67;101787.43;1584431;88;20152;-77
2022/08/08 09:45:03;;;;;;;;;;;;;;;26.48;32.33;101782.19;1559732;90;20284;-76
2022/08/08 09:47:31;;;;;;;;;;;;;;;26.37;32.63;101776.70;1587397;88;20483;-76
2022/08/08 09:49:58;;;;;;;;;;;;;;;26.38;32.53;101776.61;1638874;85;20174;-76
2022/08/08 09:52:27;;;;;;;;;;;;;;;26.40;32.67;101779.64;1646273;85;20206;-76
2022/08/08 09:54:54;;;;;;;;;;;;;;;26.43;32.68;101780.77;1646591;85;20191;-76
2022/08/08 09:57:32;;;;;;;;;;;;;;;26.44;32.69;101775.84;1646895;85;20226;-75
2022/08/08 09:59:59;;;;;;;;;;;;;;;26.48;32.53;101770.72;1649231;85;20231;-78
2022/08/08 10:02:35;;;;;;;;;;;;;;;26.40;32.46;101770.36;1638108;85;20484;-78
2022/08/08 10:05:11;;;;;;;;;;;;;;;26.37;32.27;101769.61;1638644;85;20225;-79
2022/08/08 10:07:53;;;;;;;;;;;;;;;26.48;31.37;101769.39;1615634;87;20241;-78
2022/08/08 10:10:26;;;;;;;;;;;;;;;26.54;32.35;101775.59;1593008;88;20487;-78
2022/08/08 10:12:53;;;;;;;;;;;;;;;26.55;32.22;101765.36;1592190;88;20664;-78
2022/08/08 10:15:19;;;;;;;;;;;;;;;26.58;32.41;101771.32;1652817;85;20198;-79
2022/08/08 10:17:48;;;;;;;;;;;;;;;26.67;32.36;101769.40;1657015;85;20357;-79
2022/08/08 10:20:15;;;;;;;;;;;;;;;26.70;32.17;101767.02;1648380;85;20329;-78
2022/08/08 10:23:02;;;;;;;;;;;;;;;26.65;32.07;101769.13;1647035;85;20218;-78
2022/08/08 10:25:28;;;;;;;;;;;;;;;26.56;31.77;101761.76;1647094;85;21108;-78
2022/08/08 10:27:56;;;;;;;;;;;;;;;26.43;32.05;101763.53;1638029;85;20684;-78
2022/08/08 10:30:24;;;;;;;;;;;;;;;26.41;32.23;101762.78;1644274;85;20210;-78
2022/08/08 10:32:55;;;;;;;;;;;;;;;26.40;32.17;101758.42;1646550;86;20218;-79
2022/08/08 10:35:26;;;;;;;;;;;;;;;26.41;32.14;101760.98;1648960;85;20665;-79
2022/08/08 10:37:55;;;;;;;;;;;;;;;26.42;32.03;101760.03;1643742;85;20195;-79
2022/08/08 10:40:25;;;;;;;;;;;;;;;26.38;31.87;101761.17;1638940;85;20218;-79
2022/08/08 10:43:00;;;;;;;;;;;;;;;26.30;32.00;101758.13;1643236;86;20264;-79
2022/08/08 10:45:26;;;;;;;;;;;;;;;26.23;31.25;101762.97;1642374;86;20220;-78
2022/08/08 10:47:56;;;;;;;;;;;;;;;26.14;31.87;101761.37;1637689;85;20535;-79
2022/08/08 10:50:31;;;;;;;;;;;;;;;26.10;31.97;101765.16;1633574;85;20191;-79
2022/08/08 10:53:04;;;;;;;;;;;;;;;26.13;31.87;101762.31;1622611;86;20193;-76
2022/08/08 10:55:31;;;;;;;;;;;;;;;26.13;31.50;101761.84;1618479;87;20227;-76
2022/08/08 10:58:00;;;;;;;;;;;;;;;26.09;31.88;101759.48;1624174;86;20180;-76
2022/08/08 11:00:27;;;;;;;;;;;;;;;26.07;31.94;101756.92;1618789;86;20235;-76
2022/08/08 11:02:54;;;;;;;;;;;;;;;26.07;31.79;101754.27;1620394;86;20574;-76
2022/08/08 11:05:21;;;;;;;;;;;;;;;26.10;31.85;101751.91;1623287;86;20286;-76
2022/08/08 11:07:51;;;;;;;;;;;;;;;26.18;31.78;101756.25;1629080;86;20504;-78
2022/08/08 11:10:19;;;;;;;;;;;;;;;26.24;31.82;101754.06;1622749;86;20620;-78
2022/08/08 11:12:50;;;;;;;;;;;;;;;26.32;31.73;101749.63;1622322;86;20242;-77
2022/08/08 11:15:19;;;;;;;;;;;;;;;26.35;31.19;101754.27;1622116;86;20212;-77
2022/08/08 11:17:46;;;;;;;;;;;;;;;26.21;31.45;101747.63;1634472;87;20281;-77
2022/08/08 11:20:15;;;;;;;;;;;;;;;26.13;31.31;101751.23;1624221;86;20120;-80
2022/08/08 11:22:41;;;;;;;;;;;;;;;26.04;31.26;101739.88;1618933;87;20104;-78
2022/08/08 11:25:12;;;;;;;;;;;;;;;26.10;31.51;101735.52;1638122;85;20108;-77
2022/08/08 11:27:38;;;;;;;;;;;;;;;26.18;31.62;101734.56;1618704;87;20125;-77
2022/08/08 11:30:08;;;;;;;;;;;;;;;26.35;31.72;101728.22;1622574;86;20151;-79
2022/08/08 11:32:40;;;;;;;;;;;;;;;26.57;31.60;101735.61;1642006;86;20151;-79
2022/08/08 11:35:11;;;;;;;;;;;;;;;26.78;31.59;101733.34;1628640;85;20140;-79
2022/08/08 11:37:39;;;;;;;;;;;;;;;26.98;31.44;101740.88;1621764;86;20118;-78
2022/08/08 11:40:07;;;;;;;;;;;;;;;27.10;31.37;101731.20;1604543;87;20336;-78
2022/08/08 11:42:34;;;;;;;;;;;;;;;27.09;31.17;101736.14;1632157;86;20202;-78
2022/08/08 11:45:01;;;;;;;;;;;;;;;26.96;31.04;101738.80;1630993;85;20207;-78
2022/08/08 11:47:28;;;;;;;;;;;;;;;26.83;30.82;101733.89;1623934;86;20242;-78
2022/08/08 11:49:57;;;;;;;;;;;;;;;26.71;31.10;101732.42;1636836;85;20286;-79
2022/08/08 11:52:24;;;;;;;;;;;;;;;26.71;31.25;101731.58;1638592;85;20204;-78
2022/08/08 11:54:50;;;;;;;;;;;;;;;26.71;31.26;101734.23;1637716;85;20503;-78
2022/08/08 11:57:20;;;;;;;;;;;;;;;26.67;31.08;101732.73;1639124;85;20187;-78
2022/08/08 11:59:52;;;;;;;;;;;;;;;26.58;30.52;101734.66;1640924;85;20292;-78
2022/08/08 12:02:20;;;;;;;;;;;;;;;26.52;31.27;101733.73;1633587;85;20302;-79
2022/08/08 12:04:46;;;;;;;;;;;;;;;26.52;31.16;101741.21;1639398;85;20225;-78
2022/08/08 12:07:12;;;;;;;;;;;;;;;26.54;31.21;101734.48;1637516;84;20235;-79
2022/08/08 12:09:38;;;;;;;;;;;;;;;26.56;31.22;101735.23;1641187;85;20200;-79
2022/08/08 12:12:05;;;;;;;;;;;;;;;26.56;31.18;101734.75;1637521;85;20190;-79
2022/08/08 12:14:32;;;;;;;;;;;;;;;26.57;31.14;101736.45;1638345;85;20223;-78
2022/08/08 12:16:58;;;;;;;;;;;;;;;26.54;31.05;101731.83;1639959;85;20569;-78
2022/08/08 12:19:25;;;;;;;;;;;;;;;26.53;31.12;101741.59;1640769;85;20578;-78
2022/08/08 12:21:51;;;;;;;;;;;;;;;26.48;30.80;101729.13;1647338;85;20222;-77
2022/08/08 12:24:19;;;;;;;;;;;;;;;26.47;31.03;101735.86;1645701;86;20274;-77
2022/08/08 12:26:50;;;;;;;;;;;;;;;26.48;31.10;101738.41;1644402;85;20498;-77
2022/08/08 12:29:22;;;;;;;;;;;;;;;26.47;31.01;101733.20;1651825;85;20093;-77
2022/08/08 12:32:03;;;;;;;;;;;;;;;26.48;31.04;101730.93;1647147;85;20146;-76
2022/08/08 12:34:42;;;;;;;;;;;;;;;26.53;31.20;101736.28;1628979;85;20159;-76
2022/08/08 12:37:20;;;;;;;;;;;;;;;26.57;31.08;101728.97;1565882;85;5001075;-76
2022/08/08 12:39:46;;;;;;;;;;;;;;;26.56;31.00;101729.92;1641885;86;20097;-77
2022/08/08 12:42:12;;;;;;;;;;;;;;;26.62;31.22;101726.88;1638448;86;20131;-79
2022/08/08 12:44:40;;;;;;;;;;;;;;;26.66;31.11;101729.22;1640706;86;20136;-78
2022/08/08 12:47:07;;;;;;;;;;;;;;;26.71;31.15;101726.27;1641765;85;20139;-78
2022/08/08 12:49:34;;;;;;;;;;;;;;;26.78;31.12;101722.25;1636524;85;20122;-78
2022/08/08 12:52:01;;;;;;;;;;;;;;;26.80;31.11;101720.35;1620231;87;20138;-78
2022/08/08 12:54:33;;;;;;;;;;;;;;;26.84;31.11;101726.30;1617324;87;20182;-79
2022/08/08 12:56:59;;;;;;;;;;;;;;;26.84;31.19;101723.17;1616122;87;20213;-78
2022/08/08 12:59:30;;;;;;;;;;;;;;;26.85;31.04;101724.87;1614335;87;20586;-78
2022/08/08 13:01:58;;;;;;;;;;;;;;;26.82;31.03;101725.55;1620990;87;20625;-78
2022/08/08 13:04:37;;;;;;;;;;;;;;;;;;;;;